sensor_id;sensor_type;location;lat;lon;timestamp;P1;durP1;ratioP1;P2;durP2;ratioP2
70814;SDS011;58428;49.478;10.986;2023-05-21T00:02:16;11.55;;;7.65;;
70814;SDS011;58428;49.478;10.986;2023-05-21T00:04:43;12.20;;;7.68;;
70814;SDS011;58428;49.478;10.986;2023-05-21T00:07:09;10.13;;;7.55;;
70814;SDS011;58428;49.478;10.986;2023-05-21T00:09:35;12.43;;;7.78;;
70814;SDS011;58428;49.478;10.986;2023-05-21T00:12:02;11.20;;;7.85;;
70814;SDS011;58428;49.478;10.986;2023-05-21T00:14:35;13.23;;;8.38;;
70814;SDS011;58428;49.478;10.986;2023-05-21T00:17:00;11.07;;;7.25;;
70814;SDS011;58428;49.478;10.986;2023-05-21T00:19:26;13.48;;;7.78;;
70814;SDS011;58428;49.478;10.986;2023-05-21T00:21:52;12.50;;;7.93;;
70814;SDS011;58428;49.478;10.986;2023-05-21T00:24:18;11.35;;;7.95;;
70814;SDS011;58428;49.478;10.986;2023-05-21T00:26:45;11.77;;;7.85;;
70814;SDS011;58428;49.478;10.986;2023-05-21T00:29:10;12.60;;;8.45;;
70814;SDS011;58428;49.478;10.986;2023-05-21T00:31:36;12.38;;;7.90;;
70814;SDS011;58428;49.478;10.986;2023-05-21T00:36:26;12.40;;;7.40;;
70814;SDS011;58428;49.478;10.986;2023-05-21T00:38:52;11.95;;;8.13;;
70814;SDS011;58428;49.478;10.986;2023-05-21T00:41:17;12.05;;;8.02;;
70814;SDS011;58428;49.478;10.986;2023-05-21T00:43:43;12.23;;;8.63;;
70814;SDS011;58428;49.478;10.986;2023-05-21T00:46:09;11.98;;;7.97;;
70814;SDS011;58428;49.478;10.986;2023-05-21T00:48:37;12.68;;;8.15;;
70814;SDS011;58428;49.478;10.986;2023-05-21T00:51:04;13.38;;;7.70;;
70814;SDS011;58428;49.478;10.986;2023-05-21T00:53:30;13.05;;;8.35;;
70814;SDS011;58428;49.478;10.986;2023-05-21T00:55:59;12.05;;;7.70;;
70814;SDS011;58428;49.478;10.986;2023-05-21T00:58:25;11.20;;;7.55;;
70814;SDS011;58428;49.478;10.986;2023-05-21T01:00:51;11.50;;;7.40;;
70814;SDS011;58428;49.478;10.986;2023-05-21T01:03:19;11.93;;;8.48;;
70814;SDS011;58428;49.478;10.986;2023-05-21T01:05:49;11.90;;;8.07;;
70814;SDS011;58428;49.478;10.986;2023-05-21T01:08:17;11.98;;;7.70;;
70814;SDS011;58428;49.478;10.986;2023-05-21T01:10:45;11.88;;;8.00;;
70814;SDS011;58428;49.478;10.986;2023-05-21T01:13:12;11.27;;;7.93;;
70814;SDS011;58428;49.478;10.986;2023-05-21T01:15:44;12.57;;;8.30;;
70814;SDS011;58428;49.478;10.986;2023-05-21T01:18:10;11.02;;;7.93;;
70814;SDS011;58428;49.478;10.986;2023-05-21T01:20:40;12.43;;;8.38;;
70814;SDS011;58428;49.478;10.986;2023-05-21T01:23:09;11.07;;;7.90;;
70814;SDS011;58428;49.478;10.986;2023-05-21T01:25:35;12.60;;;8.02;;
70814;SDS011;58428;49.478;10.986;2023-05-21T01:28:00;11.40;;;8.13;;
70814;SDS011;58428;49.478;10.986;2023-05-21T01:35:25;12.45;;;8.15;;
70814;SDS011;58428;49.478;10.986;2023-05-21T01:40:39;10.82;;;7.68;;
70814;SDS011;58428;49.478;10.986;2023-05-21T01:43:10;12.00;;;7.93;;
70814;SDS011;58428;49.478;10.986;2023-05-21T01:45:38;12.05;;;8.38;;
70814;SDS011;58428;49.478;10.986;2023-05-21T01:48:06;13.52;;;8.38;;
70814;SDS011;58428;49.478;10.986;2023-05-21T01:50:33;12.23;;;8.07;;
70814;SDS011;58428;49.478;10.986;2023-05-21T01:53:01;12.50;;;7.95;;
70814;SDS011;58428;49.478;10.986;2023-05-21T01:55:29;12.73;;;8.05;;
70814;SDS011;58428;49.478;10.986;2023-05-21T01:57:57;12.88;;;8.10;;
70814;SDS011;58428;49.478;10.986;2023-05-21T02:00:25;11.05;;;8.13;;
70814;SDS011;58428;49.478;10.986;2023-05-21T02:02:56;10.75;;;7.43;;
70814;SDS011;58428;49.478;10.986;2023-05-21T02:05:22;13.25;;;8.07;;
70814;SDS011;58428;49.478;10.986;2023-05-21T02:10:14;13.23;;;7.72;;
70814;SDS011;58428;49.478;10.986;2023-05-21T02:15:05;11.03;;;7.33;;
70814;SDS011;58428;49.478;10.986;2023-05-21T02:17:33;10.93;;;7.63;;
70814;SDS011;58428;49.478;10.986;2023-05-21T02:22:36;11.25;;;7.93;;
70814;SDS011;58428;49.478;10.986;2023-05-21T02:25:06;11.43;;;7.80;;
70814;SDS011;58428;49.478;10.986;2023-05-21T02:27:33;12.60;;;7.88;;
70814;SDS011;58428;49.478;10.986;2023-05-21T02:30:00;13.50;;;8.65;;
70814;SDS011;58428;49.478;10.986;2023-05-21T02:32:28;13.02;;;7.70;;
70814;SDS011;58428;49.478;10.986;2023-05-21T02:34:55;14.07;;;8.13;;
70814;SDS011;58428;49.478;10.986;2023-05-21T02:37:22;12.35;;;8.05;;
70814;SDS011;58428;49.478;10.986;2023-05-21T02:39:48;11.73;;;8.02;;
70814;SDS011;58428;49.478;10.986;2023-05-21T02:42:13;11.43;;;7.95;;
70814;SDS011;58428;49.478;10.986;2023-05-21T02:44:39;11.63;;;7.45;;
70814;SDS011;58428;49.478;10.986;2023-05-21T02:47:06;12.18;;;7.93;;
70814;SDS011;58428;49.478;10.986;2023-05-21T02:49:34;12.82;;;7.57;;
70814;SDS011;58428;49.478;10.986;2023-05-21T02:54:26;12.82;;;8.15;;
70814;SDS011;58428;49.478;10.986;2023-05-21T02:56:53;10.93;;;7.50;;
70814;SDS011;58428;49.478;10.986;2023-05-21T03:01:43;15.27;;;8.17;;
70814;SDS011;58428;49.478;10.986;2023-05-21T03:04:09;11.90;;;8.13;;
70814;SDS011;58428;49.478;10.986;2023-05-21T03:09:01;14.05;;;8.98;;
70814;SDS011;58428;49.478;10.986;2023-05-21T03:11:27;12.57;;;8.50;;
70814;SDS011;58428;49.478;10.986;2023-05-21T03:16:18;13.88;;;8.70;;
70814;SDS011;58428;49.478;10.986;2023-05-21T03:21:09;12.55;;;8.27;;
70814;SDS011;58428;49.478;10.986;2023-05-21T03:23:37;12.00;;;7.72;;
70814;SDS011;58428;49.478;10.986;2023-05-21T03:26:04;13.93;;;8.77;;
70814;SDS011;58428;49.478;10.986;2023-05-21T03:30:55;14.48;;;8.95;;
70814;SDS011;58428;49.478;10.986;2023-05-21T03:35:46;13.32;;;8.55;;
70814;SDS011;58428;49.478;10.986;2023-05-21T03:40:36;15.27;;;9.17;;
70814;SDS011;58428;49.478;10.986;2023-05-21T03:45:27;13.67;;;9.30;;
70814;SDS011;58428;49.478;10.986;2023-05-21T03:50:18;17.52;;;8.85;;
70814;SDS011;58428;49.478;10.986;2023-05-21T03:55:08;12.87;;;8.63;;
70814;SDS011;58428;49.478;10.986;2023-05-21T04:00:00;13.02;;;8.75;;
70814;SDS011;58428;49.478;10.986;2023-05-21T04:04:51;15.40;;;9.00;;
70814;SDS011;58428;49.478;10.986;2023-05-21T04:07:19;14.40;;;8.93;;
70814;SDS011;58428;49.478;10.986;2023-05-21T04:12:10;14.40;;;8.95;;
70814;SDS011;58428;49.478;10.986;2023-05-21T04:17:01;12.77;;;8.27;;
70814;SDS011;58428;49.478;10.986;2023-05-21T04:19:30;14.43;;;9.13;;
70814;SDS011;58428;49.478;10.986;2023-05-21T04:24:22;15.10;;;9.18;;
70814;SDS011;58428;49.478;10.986;2023-05-21T04:29:15;14.40;;;9.32;;
70814;SDS011;58428;49.478;10.986;2023-05-21T04:31:42;14.85;;;8.93;;
70814;SDS011;58428;49.478;10.986;2023-05-21T04:36:33;15.48;;;8.80;;
70814;SDS011;58428;49.478;10.986;2023-05-21T04:41:24;12.70;;;8.15;;
70814;SDS011;58428;49.478;10.986;2023-05-21T04:46:19;13.88;;;9.15;;
70814;SDS011;58428;49.478;10.986;2023-05-21T04:48:49;13.77;;;9.27;;
70814;SDS011;58428;49.478;10.986;2023-05-21T04:51:17;15.55;;;9.52;;
70814;SDS011;58428;49.478;10.986;2023-05-21T04:56:08;14.85;;;9.60;;
70814;SDS011;58428;49.478;10.986;2023-05-21T05:00:59;13.20;;;9.07;;
70814;SDS011;58428;49.478;10.986;2023-05-21T05:03:27;13.82;;;9.35;;
70814;SDS011;58428;49.478;10.986;2023-05-21T05:08:19;14.77;;;9.53;;
70814;SDS011;58428;49.478;10.986;2023-05-21T05:10:44;14.35;;;9.63;;
70814;SDS011;58428;49.478;10.986;2023-05-21T05:15:36;14.35;;;8.93;;
70814;SDS011;58428;49.478;10.986;2023-05-21T05:20:27;15.77;;;9.10;;
70814;SDS011;58428;49.478;10.986;2023-05-21T05:22:53;13.48;;;8.82;;
70814;SDS011;58428;49.478;10.986;2023-05-21T05:25:20;13.23;;;9.35;;
70814;SDS011;58428;49.478;10.986;2023-05-21T05:27:45;14.70;;;9.43;;
70814;SDS011;58428;49.478;10.986;2023-05-21T05:32:36;12.97;;;8.77;;
70814;SDS011;58428;49.478;10.986;2023-05-21T05:35:02;14.13;;;9.32;;
70814;SDS011;58428;49.478;10.986;2023-05-21T05:37:27;13.52;;;9.07;;
70814;SDS011;58428;49.478;10.986;2023-05-21T05:39:53;13.70;;;9.52;;
70814;SDS011;58428;49.478;10.986;2023-05-21T05:42:18;13.60;;;9.15;;
70814;SDS011;58428;49.478;10.986;2023-05-21T05:44:45;15.40;;;9.57;;
70814;SDS011;58428;49.478;10.986;2023-05-21T05:47:10;14.18;;;9.23;;
70814;SDS011;58428;49.478;10.986;2023-05-21T05:49:36;12.88;;;8.55;;
70814;SDS011;58428;49.478;10.986;2023-05-21T05:52:01;13.13;;;9.07;;
70814;SDS011;58428;49.478;10.986;2023-05-21T05:54:27;13.00;;;8.90;;
70814;SDS011;58428;49.478;10.986;2023-05-21T05:56:53;13.65;;;9.05;;
70814;SDS011;58428;49.478;10.986;2023-05-21T05:59:18;14.52;;;10.02;;
70814;SDS011;58428;49.478;10.986;2023-05-21T06:01:44;14.43;;;9.40;;
70814;SDS011;58428;49.478;10.986;2023-05-21T06:04:09;13.55;;;8.95;;
70814;SDS011;58428;49.478;10.986;2023-05-21T06:06:35;13.90;;;9.38;;
70814;SDS011;58428;49.478;10.986;2023-05-21T06:09:00;13.13;;;8.85;;
70814;SDS011;58428;49.478;10.986;2023-05-21T06:11:27;14.48;;;10.05;;
70814;SDS011;58428;49.478;10.986;2023-05-21T06:13:52;14.73;;;9.35;;
70814;SDS011;58428;49.478;10.986;2023-05-21T06:16:18;12.35;;;8.75;;
70814;SDS011;58428;49.478;10.986;2023-05-21T06:18:43;13.23;;;8.85;;
70814;SDS011;58428;49.478;10.986;2023-05-21T06:21:09;12.23;;;8.83;;
70814;SDS011;58428;49.478;10.986;2023-05-21T06:23:34;13.05;;;8.80;;
70814;SDS011;58428;49.478;10.986;2023-05-21T06:26:02;13.85;;;8.75;;
70814;SDS011;58428;49.478;10.986;2023-05-21T06:28:30;12.65;;;8.10;;
70814;SDS011;58428;49.478;10.986;2023-05-21T06:30:55;12.93;;;8.60;;
70814;SDS011;58428;49.478;10.986;2023-05-21T06:33:21;12.10;;;8.75;;
70814;SDS011;58428;49.478;10.986;2023-05-21T06:35:47;43.72;;;26.00;;
70814;SDS011;58428;49.478;10.986;2023-05-21T06:38:12;16.83;;;11.15;;
70814;SDS011;58428;49.478;10.986;2023-05-21T06:40:37;13.05;;;9.32;;
70814;SDS011;58428;49.478;10.986;2023-05-21T06:43:06;14.05;;;9.38;;
70814;SDS011;58428;49.478;10.986;2023-05-21T06:45:32;13.10;;;9.55;;
70814;SDS011;58428;49.478;10.986;2023-05-21T06:47:57;13.32;;;9.13;;
70814;SDS011;58428;49.478;10.986;2023-05-21T06:50:22;11.98;;;8.50;;
70814;SDS011;58428;49.478;10.986;2023-05-21T06:52:49;11.07;;;8.38;;
70814;SDS011;58428;49.478;10.986;2023-05-21T06:55:15;12.75;;;8.73;;
70814;SDS011;58428;49.478;10.986;2023-05-21T06:57:42;11.20;;;8.27;;
70814;SDS011;58428;49.478;10.986;2023-05-21T07:00:07;13.13;;;8.65;;
70814;SDS011;58428;49.478;10.986;2023-05-21T07:02:33;12.75;;;8.65;;
70814;SDS011;58428;49.478;10.986;2023-05-21T07:04:59;12.32;;;8.57;;
70814;SDS011;58428;49.478;10.986;2023-05-21T07:07:24;12.13;;;8.52;;
70814;SDS011;58428;49.478;10.986;2023-05-21T07:09:50;13.50;;;8.38;;
70814;SDS011;58428;49.478;10.986;2023-05-21T07:12:16;12.20;;;8.52;;
70814;SDS011;58428;49.478;10.986;2023-05-21T07:14:41;12.52;;;8.95;;
70814;SDS011;58428;49.478;10.986;2023-05-21T07:17:06;12.40;;;9.10;;
70814;SDS011;58428;49.478;10.986;2023-05-21T07:19:32;10.98;;;8.32;;
70814;SDS011;58428;49.478;10.986;2023-05-21T07:21:57;11.75;;;7.97;;
70814;SDS011;58428;49.478;10.986;2023-05-21T07:24:23;11.18;;;8.20;;
70814;SDS011;58428;49.478;10.986;2023-05-21T07:26:48;11.27;;;8.27;;
70814;SDS011;58428;49.478;10.986;2023-05-21T07:29:14;12.23;;;8.32;;
70814;SDS011;58428;49.478;10.986;2023-05-21T07:31:40;14.20;;;8.48;;
70814;SDS011;58428;49.478;10.986;2023-05-21T07:34:07;11.38;;;8.10;;
70814;SDS011;58428;49.478;10.986;2023-05-21T07:36:32;11.23;;;7.85;;
70814;SDS011;58428;49.478;10.986;2023-05-21T07:38:58;13.30;;;8.32;;
70814;SDS011;58428;49.478;10.986;2023-05-21T07:41:24;12.38;;;8.13;;
70814;SDS011;58428;49.478;10.986;2023-05-21T07:43:49;12.80;;;8.85;;
70814;SDS011;58428;49.478;10.986;2023-05-21T07:46:15;11.98;;;8.40;;
70814;SDS011;58428;49.478;10.986;2023-05-21T07:48:40;11.63;;;8.50;;
70814;SDS011;58428;49.478;10.986;2023-05-21T07:51:06;10.88;;;7.90;;
70814;SDS011;58428;49.478;10.986;2023-05-21T07:53:31;11.82;;;8.48;;
70814;SDS011;58428;49.478;10.986;2023-05-21T07:55:58;10.35;;;8.02;;
70814;SDS011;58428;49.478;10.986;2023-05-21T07:58:23;13.30;;;8.48;;
70814;SDS011;58428;49.478;10.986;2023-05-21T08:00:49;11.35;;;8.30;;
70814;SDS011;58428;49.478;10.986;2023-05-21T08:03:15;11.32;;;7.85;;
70814;SDS011;58428;49.478;10.986;2023-05-21T08:05:42;11.75;;;8.55;;
70814;SDS011;58428;49.478;10.986;2023-05-21T08:08:12;10.40;;;7.88;;
70814;SDS011;58428;49.478;10.986;2023-05-21T08:10:41;11.85;;;7.95;;
70814;SDS011;58428;49.478;10.986;2023-05-21T08:13:09;11.55;;;8.15;;
70814;SDS011;58428;49.478;10.986;2023-05-21T08:15:39;10.93;;;8.15;;
70814;SDS011;58428;49.478;10.986;2023-05-21T08:18:05;11.13;;;7.88;;
70814;SDS011;58428;49.478;10.986;2023-05-21T08:20:30;12.32;;;8.20;;
70814;SDS011;58428;49.478;10.986;2023-05-21T08:23:00;11.50;;;8.38;;
70814;SDS011;58428;49.478;10.986;2023-05-21T08:25:27;10.93;;;7.80;;
70814;SDS011;58428;49.478;10.986;2023-05-21T08:27:52;10.57;;;7.78;;
70814;SDS011;58428;49.478;10.986;2023-05-21T08:30:18;10.82;;;8.15;;
70814;SDS011;58428;49.478;10.986;2023-05-21T08:32:44;10.57;;;7.68;;
70814;SDS011;58428;49.478;10.986;2023-05-21T08:35:09;12.07;;;7.22;;
70814;SDS011;58428;49.478;10.986;2023-05-21T08:37:35;11.52;;;8.25;;
70814;SDS011;58428;49.478;10.986;2023-05-21T08:40:00;10.27;;;7.55;;
70814;SDS011;58428;49.478;10.986;2023-05-21T08:42:32;11.02;;;7.75;;
70814;SDS011;58428;49.478;10.986;2023-05-21T08:45:04;11.40;;;8.18;;
70814;SDS011;58428;49.478;10.986;2023-05-21T08:47:33;11.20;;;7.60;;
70814;SDS011;58428;49.478;10.986;2023-05-21T08:50:00;10.68;;;6.95;;
70814;SDS011;58428;49.478;10.986;2023-05-21T08:52:29;8.48;;;6.80;;
70814;SDS011;58428;49.478;10.986;2023-05-21T08:54:55;11.98;;;7.28;;
70814;SDS011;58428;49.478;10.986;2023-05-21T08:57:23;11.80;;;7.35;;
70814;SDS011;58428;49.478;10.986;2023-05-21T08:59:50;10.75;;;7.32;;
70814;SDS011;58428;49.478;10.986;2023-05-21T09:02:16;10.40;;;7.18;;
70814;SDS011;58428;49.478;10.986;2023-05-21T09:04:43;9.93;;;7.10;;
70814;SDS011;58428;49.478;10.986;2023-05-21T09:07:13;10.48;;;7.15;;
70814;SDS011;58428;49.478;10.986;2023-05-21T09:09:56;10.20;;;7.47;;
70814;SDS011;58428;49.478;10.986;2023-05-21T09:12:26;10.73;;;7.20;;
70814;SDS011;58428;49.478;10.986;2023-05-21T09:14:52;10.75;;;7.30;;
70814;SDS011;58428;49.478;10.986;2023-05-21T09:17:18;10.05;;;7.20;;
70814;SDS011;58428;49.478;10.986;2023-05-21T09:22:44;10.38;;;7.45;;
70814;SDS011;58428;49.478;10.986;2023-05-21T09:25:23;8.85;;;6.93;;
70814;SDS011;58428;49.478;10.986;2023-05-21T09:27:52;9.82;;;6.45;;
70814;SDS011;58428;49.478;10.986;2023-05-21T09:30:19;9.55;;;6.55;;
70814;SDS011;58428;49.478;10.986;2023-05-21T09:32:45;10.95;;;7.47;;
70814;SDS011;58428;49.478;10.986;2023-05-21T09:35:18;10.32;;;6.95;;
70814;SDS011;58428;49.478;10.986;2023-05-21T09:37:44;9.45;;;7.03;;
70814;SDS011;58428;49.478;10.986;2023-05-21T09:40:13;9.63;;;6.97;;
70814;SDS011;58428;49.478;10.986;2023-05-21T09:42:46;10.50;;;7.45;;
70814;SDS011;58428;49.478;10.986;2023-05-21T09:45:20;10.82;;;7.25;;
70814;SDS011;58428;49.478;10.986;2023-05-21T09:47:46;9.93;;;7.60;;
70814;SDS011;58428;49.478;10.986;2023-05-21T09:52:47;10.48;;;7.03;;
70814;SDS011;58428;49.478;10.986;2023-05-21T09:55:15;10.73;;;7.28;;
70814;SDS011;58428;49.478;10.986;2023-05-21T09:57:45;9.60;;;6.75;;
70814;SDS011;58428;49.478;10.986;2023-05-21T10:02:55;10.43;;;7.68;;
70814;SDS011;58428;49.478;10.986;2023-05-21T10:05:25;9.68;;;7.32;;
70814;SDS011;58428;49.478;10.986;2023-05-21T10:07:58;10.65;;;7.57;;
70814;SDS011;58428;49.478;10.986;2023-05-21T10:10:29;8.98;;;6.78;;
70814;SDS011;58428;49.478;10.986;2023-05-21T10:15:26;9.18;;;7.15;;
70814;SDS011;58428;49.478;10.986;2023-05-21T10:17:55;10.13;;;7.13;;
70814;SDS011;58428;49.478;10.986;2023-05-21T10:20:21;10.57;;;7.32;;
70814;SDS011;58428;49.478;10.986;2023-05-21T10:23:07;10.07;;;7.45;;
70814;SDS011;58428;49.478;10.986;2023-05-21T10:25:34;10.35;;;7.00;;
70814;SDS011;58428;49.478;10.986;2023-05-21T10:28:00;9.52;;;6.97;;
70814;SDS011;58428;49.478;10.986;2023-05-21T10:30:27;9.68;;;6.68;;
70814;SDS011;58428;49.478;10.986;2023-05-21T10:32:54;10.18;;;7.80;;
70814;SDS011;58428;49.478;10.986;2023-05-21T10:35:21;9.45;;;7.65;;
70814;SDS011;58428;49.478;10.986;2023-05-21T10:37:47;14.55;;;8.48;;
70814;SDS011;58428;49.478;10.986;2023-05-21T10:40:16;10.68;;;8.18;;
70814;SDS011;58428;49.478;10.986;2023-05-21T10:57:45;10.35;;;7.35;;
70814;SDS011;58428;49.478;10.986;2023-05-21T11:00:31;10.52;;;7.95;;
70814;SDS011;58428;49.478;10.986;2023-05-21T11:02:57;11.55;;;8.27;;
70814;SDS011;58428;49.478;10.986;2023-05-21T11:08:27;10.85;;;7.97;;
70814;SDS011;58428;49.478;10.986;2023-05-21T11:10:58;11.05;;;8.05;;
70814;SDS011;58428;49.478;10.986;2023-05-21T11:13:24;9.27;;;7.63;;
70814;SDS011;58428;49.478;10.986;2023-05-21T11:18:22;10.57;;;7.55;;
70814;SDS011;58428;49.478;10.986;2023-05-21T11:20:50;10.07;;;7.80;;
70814;SDS011;58428;49.478;10.986;2023-05-21T11:23:17;10.98;;;8.20;;
70814;SDS011;58428;49.478;10.986;2023-05-21T11:25:42;10.32;;;8.27;;
70814;SDS011;58428;49.478;10.986;2023-05-21T11:28:08;10.05;;;8.02;;
70814;SDS011;58428;49.478;10.986;2023-05-21T11:30:33;9.68;;;7.93;;
70814;SDS011;58428;49.478;10.986;2023-05-21T11:35:35;9.10;;;7.22;;
70814;SDS011;58428;49.478;10.986;2023-05-21T11:38:03;10.02;;;7.70;;
70814;SDS011;58428;49.478;10.986;2023-05-21T11:40:28;10.63;;;6.72;;
70814;SDS011;58428;49.478;10.986;2023-05-21T11:42:55;9.52;;;6.38;;
70814;SDS011;58428;49.478;10.986;2023-05-21T11:45:21;8.63;;;6.22;;
70814;SDS011;58428;49.478;10.986;2023-05-21T11:47:50;8.20;;;6.25;;
70814;SDS011;58428;49.478;10.986;2023-05-21T11:50:16;7.95;;;5.78;;
70814;SDS011;58428;49.478;10.986;2023-05-21T11:52:42;9.13;;;6.15;;
70814;SDS011;58428;49.478;10.986;2023-05-21T11:55:10;7.65;;;5.88;;
70814;SDS011;58428;49.478;10.986;2023-05-21T11:57:36;8.63;;;6.00;;
70814;SDS011;58428;49.478;10.986;2023-05-21T12:00:11;7.75;;;5.65;;
70814;SDS011;58428;49.478;10.986;2023-05-21T12:02:46;7.35;;;5.55;;
70814;SDS011;58428;49.478;10.986;2023-05-21T12:05:14;8.85;;;6.00;;
70814;SDS011;58428;49.478;10.986;2023-05-21T12:07:39;7.78;;;5.90;;
70814;SDS011;58428;49.478;10.986;2023-05-21T12:10:05;9.93;;;6.07;;
70814;SDS011;58428;49.478;10.986;2023-05-21T12:12:31;8.20;;;5.50;;
70814;SDS011;58428;49.478;10.986;2023-05-21T12:14:58;9.18;;;5.82;;
70814;SDS011;58428;49.478;10.986;2023-05-21T12:17:25;8.95;;;5.95;;
70814;SDS011;58428;49.478;10.986;2023-05-21T12:19:53;8.52;;;5.97;;
70814;SDS011;58428;49.478;10.986;2023-05-21T12:22:19;8.30;;;5.95;;
70814;SDS011;58428;49.478;10.986;2023-05-21T12:24:45;8.93;;;5.47;;
70814;SDS011;58428;49.478;10.986;2023-05-21T12:27:12;9.70;;;6.05;;
70814;SDS011;58428;49.478;10.986;2023-05-21T12:29:44;9.88;;;5.95;;
70814;SDS011;58428;49.478;10.986;2023-05-21T12:32:11;8.05;;;5.75;;
70814;SDS011;58428;49.478;10.986;2023-05-21T12:34:48;9.15;;;5.90;;
70814;SDS011;58428;49.478;10.986;2023-05-21T12:39:44;8.70;;;5.85;;
70814;SDS011;58428;49.478;10.986;2023-05-21T12:42:11;7.90;;;5.53;;
70814;SDS011;58428;49.478;10.986;2023-05-21T12:44:37;7.40;;;5.43;;
70814;SDS011;58428;49.478;10.986;2023-05-21T12:47:07;7.97;;;5.35;;
70814;SDS011;58428;49.478;10.986;2023-05-21T12:49:37;7.88;;;5.55;;
70814;SDS011;58428;49.478;10.986;2023-05-21T12:52:07;9.55;;;5.72;;
70814;SDS011;58428;49.478;10.986;2023-05-21T12:54:38;7.88;;;5.28;;
70814;SDS011;58428;49.478;10.986;2023-05-21T12:59:52;8.00;;;5.63;;
70814;SDS011;58428;49.478;10.986;2023-05-21T13:05:02;7.88;;;5.30;;
70814;SDS011;58428;49.478;10.986;2023-05-21T13:07:30;8.43;;;5.90;;
70814;SDS011;58428;49.478;10.986;2023-05-21T13:09:57;10.00;;;5.68;;
70814;SDS011;58428;49.478;10.986;2023-05-21T13:12:24;7.90;;;5.50;;
70814;SDS011;58428;49.478;10.986;2023-05-21T13:14:50;8.30;;;5.80;;
70814;SDS011;58428;49.478;10.986;2023-05-21T13:17:20;8.45;;;5.20;;
70814;SDS011;58428;49.478;10.986;2023-05-21T13:22:42;8.13;;;5.85;;
70814;SDS011;58428;49.478;10.986;2023-05-21T13:25:13;7.50;;;5.35;;
70814;SDS011;58428;49.478;10.986;2023-05-21T13:27:45;7.28;;;5.22;;
70814;SDS011;58428;49.478;10.986;2023-05-21T13:30:12;7.95;;;5.25;;
70814;SDS011;58428;49.478;10.986;2023-05-21T13:32:38;8.90;;;6.10;;
70814;SDS011;58428;49.478;10.986;2023-05-21T13:35:04;10.02;;;5.68;;
70814;SDS011;58428;49.478;10.986;2023-05-21T13:37:29;7.90;;;5.22;;
70814;SDS011;58428;49.478;10.986;2023-05-21T13:39:55;10.43;;;5.90;;
70814;SDS011;58428;49.478;10.986;2023-05-21T13:42:22;7.60;;;5.53;;
70814;SDS011;58428;49.478;10.986;2023-05-21T13:44:52;8.10;;;5.80;;
70814;SDS011;58428;49.478;10.986;2023-05-21T13:47:17;8.68;;;5.43;;
70814;SDS011;58428;49.478;10.986;2023-05-21T13:49:43;8.55;;;5.50;;
70814;SDS011;58428;49.478;10.986;2023-05-21T13:52:08;7.82;;;5.72;;
70814;SDS011;58428;49.478;10.986;2023-05-21T13:54:34;7.57;;;5.35;;
70814;SDS011;58428;49.478;10.986;2023-05-21T13:57:00;7.65;;;5.30;;
70814;SDS011;58428;49.478;10.986;2023-05-21T13:59:25;7.13;;;5.22;;
70814;SDS011;58428;49.478;10.986;2023-05-21T14:01:51;8.48;;;5.82;;
70814;SDS011;58428;49.478;10.986;2023-05-21T14:04:17;7.97;;;5.38;;
70814;SDS011;58428;49.478;10.986;2023-05-21T14:06:43;9.25;;;6.28;;
70814;SDS011;58428;49.478;10.986;2023-05-21T14:09:11;7.80;;;5.75;;
70814;SDS011;58428;49.478;10.986;2023-05-21T14:11:39;8.23;;;5.32;;
70814;SDS011;58428;49.478;10.986;2023-05-21T14:14:05;9.57;;;6.90;;
70814;SDS011;58428;49.478;10.986;2023-05-21T14:16:31;8.80;;;5.55;;
70814;SDS011;58428;49.478;10.986;2023-05-21T14:19:16;8.15;;;5.78;;
70814;SDS011;58428;49.478;10.986;2023-05-21T14:21:42;7.45;;;5.15;;
70814;SDS011;58428;49.478;10.986;2023-05-21T14:24:08;10.07;;;6.68;;
70814;SDS011;58428;49.478;10.986;2023-05-21T14:26:33;7.50;;;5.22;;
70814;SDS011;58428;49.478;10.986;2023-05-21T14:29:01;9.40;;;5.80;;
70814;SDS011;58428;49.478;10.986;2023-05-21T14:31:26;12.48;;;5.00;;
70814;SDS011;58428;49.478;10.986;2023-05-21T14:33:53;7.60;;;5.07;;
70814;SDS011;58428;49.478;10.986;2023-05-21T14:36:19;7.90;;;5.32;;
70814;SDS011;58428;49.478;10.986;2023-05-21T14:38:45;8.43;;;5.10;;
70814;SDS011;58428;49.478;10.986;2023-05-21T14:41:10;7.07;;;4.95;;
70814;SDS011;58428;49.478;10.986;2023-05-21T14:43:36;8.32;;;5.00;;
70814;SDS011;58428;49.478;10.986;2023-05-21T14:46:01;8.45;;;5.35;;
70814;SDS011;58428;49.478;10.986;2023-05-21T14:48:27;8.00;;;5.63;;
70814;SDS011;58428;49.478;10.986;2023-05-21T14:50:52;8.93;;;5.40;;
70814;SDS011;58428;49.478;10.986;2023-05-21T14:53:18;7.53;;;5.30;;
70814;SDS011;58428;49.478;10.986;2023-05-21T14:55:43;7.85;;;5.70;;
70814;SDS011;58428;49.478;10.986;2023-05-21T14:58:09;7.78;;;5.05;;
70814;SDS011;58428;49.478;10.986;2023-05-21T15:00:35;9.18;;;5.55;;
70814;SDS011;58428;49.478;10.986;2023-05-21T15:03:01;8.90;;;5.50;;
70814;SDS011;58428;49.478;10.986;2023-05-21T15:05:29;7.72;;;5.40;;
70814;SDS011;58428;49.478;10.986;2023-05-21T15:07:55;6.80;;;5.13;;
70814;SDS011;58428;49.478;10.986;2023-05-21T15:10:21;7.63;;;5.13;;
70814;SDS011;58428;49.478;10.986;2023-05-21T15:12:47;9.20;;;5.57;;
70814;SDS011;58428;49.478;10.986;2023-05-21T15:15:13;7.05;;;5.22;;
70814;SDS011;58428;49.478;10.986;2023-05-21T15:17:41;8.40;;;4.95;;
70814;SDS011;58428;49.478;10.986;2023-05-21T15:20:07;6.50;;;4.80;;
70814;SDS011;58428;49.478;10.986;2023-05-21T15:22:38;6.85;;;4.68;;
70814;SDS011;58428;49.478;10.986;2023-05-21T15:25:03;7.13;;;5.10;;
70814;SDS011;58428;49.478;10.986;2023-05-21T15:27:29;9.68;;;5.47;;
70814;SDS011;58428;49.478;10.986;2023-05-21T15:29:55;8.52;;;5.40;;
70814;SDS011;58428;49.478;10.986;2023-05-21T15:32:20;7.43;;;5.00;;
70814;SDS011;58428;49.478;10.986;2023-05-21T15:34:48;6.60;;;4.72;;
70814;SDS011;58428;49.478;10.986;2023-05-21T15:37:14;6.93;;;4.80;;
70814;SDS011;58428;49.478;10.986;2023-05-21T15:39:43;7.82;;;4.80;;
70814;SDS011;58428;49.478;10.986;2023-05-21T15:42:10;7.38;;;5.18;;
70814;SDS011;58428;49.478;10.986;2023-05-21T15:44:36;7.18;;;5.03;;
70814;SDS011;58428;49.478;10.986;2023-05-21T15:47:02;7.93;;;4.78;;
70814;SDS011;58428;49.478;10.986;2023-05-21T15:49:28;7.03;;;4.85;;
70814;SDS011;58428;49.478;10.986;2023-05-21T15:51:53;7.15;;;4.85;;
70814;SDS011;58428;49.478;10.986;2023-05-21T15:54:21;7.88;;;4.97;;
70814;SDS011;58428;49.478;10.986;2023-05-21T15:56:48;7.05;;;4.60;;
70814;SDS011;58428;49.478;10.986;2023-05-21T15:59:14;8.93;;;5.22;;
70814;SDS011;58428;49.478;10.986;2023-05-21T16:01:39;7.60;;;5.03;;
70814;SDS011;58428;49.478;10.986;2023-05-21T16:04:04;9.05;;;5.40;;
70814;SDS011;58428;49.478;10.986;2023-05-21T16:06:30;11.30;;;5.80;;
70814;SDS011;58428;49.478;10.986;2023-05-21T16:08:57;8.65;;;5.45;;
70814;SDS011;58428;49.478;10.986;2023-05-21T16:11:23;8.20;;;5.55;;
70814;SDS011;58428;49.478;10.986;2023-05-21T16:13:51;8.38;;;5.90;;
70814;SDS011;58428;49.478;10.986;2023-05-21T16:16:17;7.68;;;5.38;;
70814;SDS011;58428;49.478;10.986;2023-05-21T16:18:43;8.70;;;5.60;;
70814;SDS011;58428;49.478;10.986;2023-05-21T16:21:08;9.43;;;5.22;;
70814;SDS011;58428;49.478;10.986;2023-05-21T16:23:34;7.88;;;5.20;;
70814;SDS011;58428;49.478;10.986;2023-05-21T16:26:02;8.20;;;5.22;;
70814;SDS011;58428;49.478;10.986;2023-05-21T16:28:36;9.80;;;5.40;;
70814;SDS011;58428;49.478;10.986;2023-05-21T16:31:04;7.88;;;5.15;;